^^
Datos históricos de la estación: Murcia-Puente Tocinos
Diario Informe para Abril 12, 2019 Unidades:  Métrico    Ingés   Ambas
Diario Semanal Mensual Anual
  Máxima: Mínima: Promedio:
Temperatura: 24.2 °C 16.6 °C 20.2 °C
Punto de rocio: 16 °C 7.9 °C 12.4 °C
Humedad: 80% 40.1% 62%
Velocidad viento: 20.1km/h 0km/h 9.8km/h
Racha viento: 40.7km/h - -
Viento- - ENE
Presión: 1013.6 hPa 1010.5 hPa -
Precipitación: 0.0 mm    
 
 
Tabla de datos para Abril 12, 2019
Hora Temperatura Punto de rocio Presión Viento Velocidad viento Racha viento Humedad Intensidad lluvia(por hora) Nubes
00:04 19.1 °C 13.9 °C 1011.8 hPa NE 5 km/h 9.7 km/h 72% 0.0 mm
00:09 19 °C 13.8 °C 1011.8 hPa NE 4.6 km/h 9.7 km/h 72% 0.0 mm
00:14 19 °C 13.8 °C 1011.8 hPa NE 3.9 km/h 9.5 km/h 72% 0.0 mm
00:19 18.9 °C 13.5 °C 1011.9 hPa NE 4.7 km/h 11.1 km/h 71.2% 0.0 mm
00:24 18.9 °C 13.5 °C 1011.9 hPa NE 6.5 km/h 11.3 km/h 71% 0.0 mm
00:29 18.9 °C 13.5 °C 1011.9 hPa NE 6.6 km/h 9.7 km/h 71% 0.0 mm
00:34 18.9 °C 13.5 °C 1012.0 hPa NE 6.9 km/h 11.1 km/h 71% 0.0 mm
00:39 18.9 °C 13.5 °C 1012.0 hPa NE 6.6 km/h 11.3 km/h 71% 0.0 mm
00:44 18.9 °C 13.5 °C 1012.0 hPa NE 5.8 km/h 11.1 km/h 71% 0.0 mm
00:49 18.9 °C 13.5 °C 1012.2 hPa NE 5.8 km/h 11.3 km/h 71% 0.0 mm
00:54 19 °C 13.6 °C 1012.2 hPa NE 5.8 km/h 10.3 km/h 71% 0.0 mm
00:59 19 °C 13.6 °C 1012.2 hPa NE 5.8 km/h 11.3 km/h 71% 0.0 mm
01:04 19 °C 13.6 °C 1012.3 hPa NE 5.8 km/h 12.2 km/h 71% 0.0 mm
01:09 19 °C 13.5 °C 1012.3 hPa NE 6.6 km/h 13 km/h 70.5% 0.0 mm
01:14 19 °C 13.6 °C 1012.3 hPa NE 8.4 km/h 13 km/h 71% 0.0 mm
01:19 19 °C 13.6 °C 1012.3 hPa ENE 7.8 km/h 13 km/h 71% 0.0 mm
01:24 18.9 °C 13.6 °C 1012.2 hPa ENE 6.5 km/h 13.7 km/h 71.4% 0.0 mm
01:29 18.8 °C 13.7 °C 1012.2 hPa ENE 6.6 km/h 14.8 km/h 72% 0.0 mm
01:34 18.7 °C 13.6 °C 1012.2 hPa NE 6.9 km/h 14.5 km/h 72% 0.0 mm
01:39 18.6 °C 13.4 °C 1012.1 hPa NE 6.9 km/h 12.9 km/h 72% 0.0 mm
01:44 18.6 °C 13.4 °C 1012.1 hPa NE 6.9 km/h 11.3 km/h 72% 0.0 mm
01:49 18.5 °C 13.3 °C 1012.1 hPa NE 6.9 km/h 14.8 km/h 72% 0.0 mm
01:54 18.4 °C 13.4 °C 1012.1 hPa NE 6.9 km/h 14.5 km/h 72.6% 0.0 mm
01:59 18.4 °C 13.4 °C 1012.1 hPa ENE 7.2 km/h 14.5 km/h 72.6% 0.0 mm
02:04 18.3 °C 13.2 °C 1012.1 hPa ENE 7.6 km/h 14.8 km/h 72% 0.0 mm
02:09 18.3 °C 13.2 °C 1012.1 hPa ENE 7.2 km/h 14.5 km/h 72% 0.0 mm
02:14 18.2 °C 13.1 °C 1012.1 hPa ENE 6.5 km/h 14.8 km/h 72% 0.0 mm
02:19 18.1 °C 12.8 °C 1012.1 hPa NE 7.1 km/h 15.6 km/h 71.3% 0.0 mm
02:24 18.1 °C 12.8 °C 1012.1 hPa NE 8.4 km/h 16.1 km/h 71% 0.0 mm
02:29 18.1 °C 12.8 °C 1012.1 hPa NE 8.4 km/h 14.8 km/h 71% 0.0 mm
02:34 18 °C 12.7 °C 1012.1 hPa NE 8.4 km/h 14.5 km/h 71% 0.0 mm
02:39 18 °C 12.7 °C 1011.9 hPa NE 8.1 km/h 16.7 km/h 71% 0.0 mm
02:44 18 °C 12.7 °C 1011.9 hPa NE 7.6 km/h 16.1 km/h 71% 0.0 mm
02:49 18 °C 12.7 °C 1011.9 hPa NE 7.4 km/h 16.7 km/h 71% 0.0 mm
02:54 18 °C 12.6 °C 1011.8 hPa NE 6.9 km/h 16.7 km/h 71% 0.0 mm
02:59 17.9 °C 12.6 °C 1011.8 hPa NE 7.8 km/h 16.7 km/h 71% 0.0 mm
03:04 17.9 °C 12.6 °C 1011.8 hPa NE 9.5 km/h 16.7 km/h 71% 0.0 mm
03:09 18 °C 12.6 °C 1011.7 hPa NE 9.1 km/h 16.1 km/h 71% 0.0 mm
03:14 18 °C 12.7 °C 1011.7 hPa NE 8.4 km/h 18.5 km/h 71% 0.0 mm
03:19 18 °C 12.7 °C 1011.8 hPa NE 8.9 km/h 19.3 km/h 71% 0.0 mm
03:24 18 °C 12.7 °C 1011.8 hPa NE 10 km/h 16.7 km/h 71% 0.0 mm
03:29 17.9 °C 12.6 °C 1011.8 hPa NE 9.8 km/h 16.1 km/h 71% 0.0 mm
03:34 17.9 °C 12.6 °C 1011.8 hPa NE 9.5 km/h 12.9 km/h 71% 0.0 mm
03:39 17.9 °C 12.5 °C 1011.8 hPa ENE 8.5 km/h 11.3 km/h 70.9% 0.0 mm
03:44 17.9 °C 12.4 °C 1011.8 hPa ENE 6.5 km/h 11.3 km/h 70.5% 0.0 mm
03:49 17.8 °C 12.4 °C 1011.8 hPa NE 6.5 km/h 11.3 km/h 70.5% 0.0 mm
03:54 17.8 °C 12.3 °C 1011.8 hPa NE 6.5 km/h 11.9 km/h 70.3% 0.0 mm
03:59 17.7 °C 12.3 °C 1011.8 hPa NE 6.5 km/h 13 km/h 70.8% 0.0 mm
04:04 17.7 °C 12.4 °C 1011.9 hPa NE 6.5 km/h 12.9 km/h 71% 0.0 mm
04:09 17.6 °C 12.3 °C 1011.9 hPa NE 6.3 km/h 11.3 km/h 71% 0.0 mm
04:14 17.7 °C 12.3 °C 1011.9 hPa NE 5.8 km/h 10 km/h 71% 0.0 mm
04:19 17.7 °C 12.4 °C 1011.9 hPa ENE 5.4 km/h 9.7 km/h 71% 0.0 mm
04:24 17.6 °C 12.3 °C 1011.9 hPa ENE 4.7 km/h 8 km/h 71% 0.0 mm
04:29 17.6 °C 12.3 °C 1011.9 hPa NNE 4.2 km/h 8 km/h 71% 0.0 mm
04:34 17.6 °C 12.3 °C 1012.0 hPa NE 3.2 km/h 8 km/h 71% 0.0 mm
04:39 17.5 °C 12.2 °C 1012.0 hPa NNE 3.4 km/h 8.4 km/h 71% 0.0 mm
04:44 17.4 °C 12.1 °C 1012.0 hPa NE 3.9 km/h 8 km/h 71% 0.0 mm
04:49 17.4 °C 12.1 °C 1012.0 hPa North 3.9 km/h 7.4 km/h 71% 0.0 mm
04:54 17.3 °C 12.2 °C 1011.9 hPa NNO 3.9 km/h 8.4 km/h 71.9% 0.0 mm
04:59 17.3 °C 12.2 °C 1011.9 hPa NNO 3.6 km/h 8.4 km/h 72% 0.0 mm
05:04 17.2 °C 12.1 °C 1012.0 hPa North 3.2 km/h 8 km/h 72% 0.0 mm
05:09 17.2 °C 12.1 °C 1012.0 hPa NNE 3.2 km/h 8 km/h 72% 0.0 mm
05:14 17.2 °C 12.3 °C 1012.0 hPa North 3.2 km/h 7.4 km/h 72.7% 0.0 mm
05:19 17.2 °C 12.3 °C 1012.2 hPa NO 3.2 km/h 8 km/h 73% 0.0 mm
05:24 17.1 °C 12.2 °C 1012.2 hPa NO 3.2 km/h 9.3 km/h 73% 0.0 mm
05:29 17 °C 12.3 °C 1012.2 hPa NNO 3.7 km/h 9.7 km/h 73.9% 0.0 mm
05:34 16.9 °C 12.2 °C 1012.4 hPa NNO 4.7 km/h 8.4 km/h 74% 0.0 mm
05:39 16.8 °C 12.3 °C 1012.4 hPa NNO 4.4 km/h 8 km/h 74.9% 0.0 mm
05:44 16.8 °C 12.3 °C 1012.4 hPa NNO 3.9 km/h 8 km/h 75% 0.0 mm
05:49 16.7 °C 12.2 °C 1012.6 hPa NNO 3.7 km/h 8 km/h 75% 0.0 mm
05:54 16.7 °C 12.2 °C 1012.6 hPa NNO 3.2 km/h 4.8 km/h 75% 0.0 mm
05:59 16.7 °C 12.2 °C 1012.6 hPa NNO 2 km/h 3.2 km/h 75% 0.0 mm
06:04 16.7 °C 12.2 °C 1012.6 hPa Calm   3.9 km/h 75% 0.0 mm
06:09 16.7 °C 12.2 °C 1012.6 hPa Calm   3.2 km/h 75% 0.0 mm
06:14 16.7 °C 12.2 °C 1012.6 hPa Calm     75% 0.0 mm
06:19 16.8 °C 12.3 °C 1012.7 hPa Calm     75% 0.0 mm
06:24 16.8 °C 12.3 °C 1012.7 hPa Calm   4.7 km/h 75% 0.0 mm
06:29 16.7 °C 12.2 °C 1012.7 hPa NE 0.7 km/h 6.4 km/h 75% 0.0 mm
06:34 16.7 °C 12.2 °C 1012.8 hPa NE 2.2 km/h 8 km/h 75% 0.0 mm
06:39 16.7 °C 12.2 °C 1012.8 hPa NE 2.5 km/h 8 km/h 75% 0.0 mm
06:44 16.7 °C 12.2 °C 1012.8 hPa NE 2.9 km/h 4.8 km/h 75% 0.0 mm
06:49 16.7 °C 12.2 °C 1012.8 hPa NNE 2.7 km/h 7.4 km/h 75% 0.0 mm
06:54 16.7 °C 12.2 °C 1012.8 hPa NO 2.2 km/h 8 km/h 75% 0.0 mm
06:59 16.6 °C 12.2 °C 1012.8 hPa ONO 2.8 km/h 8.4 km/h 75% 0.0 mm
07:04 16.6 °C 12.2 °C 1012.9 hPa ONO 3.9 km/h 9.5 km/h 75% 0.0 mm
07:09 16.6 °C 12.2 °C 1012.9 hPa ONO 4.4 km/h 9.7 km/h 75% 0.0 mm
07:14 16.6 °C 12.2 °C 1012.9 hPa NO 5.8 km/h 9.7 km/h 75% 0.0 mm
07:19 16.6 °C 12.2 °C 1012.9 hPa NO 5.2 km/h 8 km/h 75% 0.0 mm
07:24 16.7 °C 12.1 °C 1012.9 hPa NO 3.9 km/h 7.4 km/h 74.2% 0.0 mm
07:29 16.8 °C 12.1 °C 1012.9 hPa NO 3.6 km/h 8 km/h 74% 0.0 mm
07:34 16.8 °C 12.1 °C 1013.1 hPa NO 3.2 km/h 8 km/h 73.8% 0.0 mm
07:39 16.9 °C 12.1 °C 1013.1 hPa NO 2.9 km/h 6.4 km/h 73.4% 0.0 mm
07:44 16.9 °C 12.1 °C 1013.1 hPa NO 2.2 km/h 6.4 km/h 73.2% 0.0 mm
07:49 17.1 °C 12.3 °C 1013.2 hPa NO 1.6 km/h 4.7 km/h 73.3% 0.0 mm
07:54 17.2 °C 12.3 °C 1013.2 hPa Calm   4.8 km/h 73% 0.0 mm
07:59 17.6 °C 12.5 °C 1013.2 hPa Calm   5.6 km/h 72.3% 0.0 mm
08:04 18 °C 12.5 °C 1013.3 hPa Calm   4.8 km/h 70.6% 0.0 mm
08:09 18.4 °C 12.5 °C 1013.3 hPa Calm   3.2 km/h 68.8% 0.0 mm
08:14 18.7 °C 12.4 °C 1013.3 hPa Calm   5.6 km/h 67.1% 0.0 mm
08:19 18.8 °C 12.5 °C 1013.3 hPa Calm   5.6 km/h 66.4% 0.0 mm
08:24 19.2 °C 12.2 °C 1013.3 hPa Calm   7.4 km/h 64.2% 0.0 mm
08:29 19.3 °C 12.1 °C 1013.3 hPa NE 0.9 km/h 8 km/h 63.5% 0.0 mm
08:34 19.3 °C 11.8 °C 1013.4 hPa ENE 2.9 km/h 8 km/h 61.9% 0.0 mm
08:39 19.3 °C 11.9 °C 1013.4 hPa ENE 3.2 km/h 8 km/h 62.4% 0.0 mm
08:44 19.3 °C 11.6 °C 1013.4 hPa NE 3.9 km/h 11.1 km/h 61.3% 0.0 mm
08:49 19.2 °C 11.5 °C 1013.6 hPa NE 4.5 km/h 11.3 km/h 61% 0.0 mm
08:54 19.2 °C 11.5 °C 1013.6 hPa NE 5.8 km/h 11.3 km/h 61.2% 0.0 mm
08:59 19.2 °C 11.7 °C 1013.6 hPa North 6 km/h 11.3 km/h 62% 0.0 mm
09:04 19.2 °C 11.6 °C 1013.6 hPa North 6.5 km/h 9.7 km/h 61.7% 0.0 mm
09:09 19.3 °C 11.6 °C 1013.5 hPa NNE 6 km/h 13 km/h 61.1% 0.0 mm
09:14 19.3 °C 11.4 °C 1013.5 hPa NE 5 km/h 13 km/h 60.3% 0.0 mm
09:19 19.3 °C 11.3 °C 1013.6 hPa NE 5.2 km/h 13.7 km/h 59.6% 0.0 mm
09:24 19.5 °C 11.3 °C 1013.6 hPa NE 5.8 km/h 14.5 km/h 58.9% 0.0 mm
09:29 19.5 °C 10.9 °C 1013.6 hPa NE 6.7 km/h 17.2 km/h 57.5% 0.0 mm
09:34 19.4 °C 10.9 °C 1013.6 hPa ENE 8.7 km/h 17.7 km/h 57.8% 0.0 mm
09:39 19.6 °C 10.9 °C 1013.6 hPa NE 8.6 km/h 18.3 km/h 57.1% 0.0 mm
09:44 19.7 °C 10.5 °C 1013.6 hPa NE 8.4 km/h 19.3 km/h 55.3% 0.0 mm
09:49 19.8 °C 10.5 °C 1013.6 hPa NE 9 km/h 19.3 km/h 55% 0.0 mm
09:54 19.8 °C 10.4 °C 1013.5 hPa ENE 10.3 km/h 19.3 km/h 54.6% 0.0 mm
09:59 20.1 °C 10.6 °C 1013.5 hPa ENE 9.7 km/h 16.1 km/h 54.5% 0.0 mm
10:04 20.2 °C 10.5 °C 1013.5 hPa NE 8.7 km/h 18.5 km/h 53.9% 0.0 mm
10:09 20.1 °C 10.5 °C 1013.4 hPa ENE 9 km/h 20.1 km/h 54% 0.0 mm
10:14 20.2 °C 10.1 °C 1013.4 hPa ENE 9.5 km/h 20.9 km/h 52.5% 0.0 mm
10:19 20.2 °C 9.9 °C 1013.4 hPa NE 9.5 km/h 20.4 km/h 51.4% 0.0 mm
10:24 20.3 °C 9.6 °C 1013.4 hPa ENE 9.5 km/h 20.9 km/h 50.3% 0.0 mm
10:29 20.4 °C 9.7 °C 1013.4 hPa ENE 9.6 km/h 20.9 km/h 50.2% 0.0 mm
10:34 20.7 °C 9.4 °C 1013.4 hPa ENE 10 km/h 22.5 km/h 48.6% 0.0 mm
10:39 20.6 °C 8.9 °C 1013.4 hPa ENE 10.7 km/h 22.5 km/h 47% 0.0 mm
10:44 20.7 °C 8.6 °C 1013.4 hPa ENE 12.2 km/h 22.5 km/h 46% 0.0 mm
10:49 20.8 °C 8.3 °C 1013.4 hPa NE 11.9 km/h 20.4 km/h 44.6% 0.0 mm
10:54 20.8 °C 7.9 °C 1013.4 hPa NE 11.1 km/h 20.9 km/h 43.6% 0.0 mm
10:59 20.9 °C 8 °C 1013.4 hPa ENE 10.7 km/h 19.3 km/h 43.5% 0.0 mm
11:04 21.2 °C 8 °C 1013.4 hPa NE 10 km/h 16.7 km/h 42.6% 0.0 mm
11:09 21.2 °C 8 °C 1013.4 hPa NE 9.6 km/h 16.7 km/h 42.7% 0.0 mm
11:14 21.1 °C 8 °C 1013.4 hPa NE 8.7 km/h 22.5 km/h 43% 0.0 mm
11:19 21.1 °C 8 °C 1013.4 hPa ESE 9.5 km/h 22.5 km/h 43.1% 0.0 mm
11:24 21.2 °C 8.2 °C 1013.4 hPa ENE 11.1 km/h 19.3 km/h 43.2% 0.0 mm
11:29 21.2 °C 8.2 °C 1013.4 hPa ENE 10.8 km/h 20.4 km/h 43.1% 0.0 mm
11:34 21.3 °C 8.3 °C 1013.4 hPa ENE 10 km/h 20.9 km/h 43.2% 0.0 mm
11:39 21.4 °C 8.3 °C 1013.3 hPa NE 9 km/h 19 km/h 43% 0.0 mm
11:44 21.5 °C 8.4 °C 1013.3 hPa NE 6.9 km/h 19.3 km/h 43% 0.0 mm
11:49 21.5 °C 8.6 °C 1013.3 hPa NE 7.7 km/h 16.7 km/h 43.5% 0.0 mm
11:54 21.7 °C 8.9 °C 1013.2 hPa ENE 9.5 km/h 22.2 km/h 44% 0.0 mm
11:59 21.8 °C 8.8 °C 1013.2 hPa NNE 9.5 km/h 22.5 km/h 43.4% 0.0 mm
12:04 21.8 °C 9 °C 1013.2 hPa NE 9.5 km/h 19.3 km/h 43.9% 0.0 mm
12:09 21.9 °C 9 °C 1013.2 hPa NE 10.2 km/h 19 km/h 43.7% 0.0 mm
12:14 22 °C 8.9 °C 1013.2 hPa ENE 11.9 km/h 19.3 km/h 43.1% 0.0 mm
12:19 22.2 °C 8.9 °C 1013.2 hPa ENE 11.1 km/h 17.7 km/h 42.7% 0.0 mm
12:24 22.3 °C 9 °C 1013.0 hPa ENE 9.5 km/h 19.8 km/h 42.6% 0.0 mm
12:29 22.4 °C 8.8 °C 1013.0 hPa ESE 9.6 km/h 20.9 km/h 42% 0.0 mm
12:34 22.4 °C 8.8 °C 1013.0 hPa ENE 10 km/h 20.9 km/h 41.8% 0.0 mm
12:39 22.4 °C 8.6 °C 1012.9 hPa ENE 9.6 km/h 20.9 km/h 41.3% 0.0 mm
12:44 22.3 °C 8.4 °C 1012.9 hPa NE 8.7 km/h 20.9 km/h 41% 0.0 mm
12:49 22.4 °C 8.6 °C 1012.9 hPa ENE 9.2 km/h 25.9 km/h 41.4% 0.0 mm
12:54 22.6 °C 8.9 °C 1012.8 hPa ENE 10.3 km/h 25.9 km/h 41.6% 0.0 mm
12:59 22.7 °C 8.8 °C 1012.8 hPa ENE 11 km/h 24.1 km/h 41.1% 0.0 mm
13:04 22.8 °C 8.8 °C 1012.8 hPa ENE 12.2 km/h 23.3 km/h 40.8% 0.0 mm
13:09 22.9 °C 8.8 °C 1012.7 hPa ENE 12.2 km/h 22.5 km/h 40.7% 0.0 mm
13:14 22.8 °C 8.7 °C 1012.7 hPa ENE 12.2 km/h 25.9 km/h 40.6% 0.0 mm
13:19 22.6 °C 8.9 °C 1012.7 hPa ENE 12.1 km/h 26.2 km/h 41.5% 0.0 mm
13:24 22.8 °C 9 °C 1012.6 hPa NE 11.9 km/h 25.7 km/h 41.5% 0.0 mm
13:29 22.8 °C 8.9 °C 1012.6 hPa NE 11.9 km/h 24.5 km/h 41% 0.0 mm
13:34 22.8 °C 8.8 °C 1012.6 hPa NE 11.9 km/h 24.1 km/h 40.8% 0.0 mm
13:39 22.8 °C 8.8 °C 1012.5 hPa NE 12 km/h 22.2 km/h 41% 0.0 mm
13:44 22.8 °C 8.7 °C 1012.5 hPa NE 12.2 km/h 22.5 km/h 40.6% 0.0 mm
13:49 22.9 °C 8.6 °C 1012.5 hPa NE 12.1 km/h 22.5 km/h 40.1% 0.0 mm
13:54 23 °C 8.7 °C 1012.4 hPa ENE 11.9 km/h 27.8 km/h 40.1% 0.0 mm
13:59 22.8 °C 8.8 °C 1012.4 hPa ENE 12 km/h 30.6 km/h 40.7% 0.0 mm
14:04 22.8 °C 8.7 °C 1012.4 hPa NE 12.2 km/h 30.6 km/h 40.5% 0.0 mm
14:09 22.8 °C 8.6 °C 1012.3 hPa ENE 12.7 km/h 32.8 km/h 40.5% 0.0 mm
14:14 22.8 °C 8.9 °C 1012.3 hPa Este 13.7 km/h 33.8 km/h 41.1% 0.0 mm
14:19 22.8 °C 9 °C 1012.3 hPa NE 14.4 km/h 33.8 km/h 41.4% 0.0 mm
14:24 22.7 °C 9.3 °C 1012.1 hPa NE 16.1 km/h 32.2 km/h 42.4% 0.0 mm
14:29 22.9 °C 9.2 °C 1012.1 hPa NE 16.2 km/h 27.4 km/h 41.9% 0.0 mm
14:34 23.1 °C 9.3 °C 1012.1 hPa NNE 16.4 km/h 25.9 km/h 41.6% 0.0 mm
14:39 23.2 °C 9.6 °C 1012.0 hPa ENE 15.7 km/h 28.2 km/h 42.2% 0.0 mm
14:44 23.3 °C 9.9 °C 1012.0 hPa NE 14 km/h 27.4 km/h 42.4% 0.0 mm
14:49 23.6 °C 10.1 °C 1012.0 hPa ENE 13.9 km/h 26.2 km/h 42.5% 0.0 mm
14:54 23.4 °C 10 °C 1012.0 hPa Este 13.7 km/h 29.6 km/h 42.6% 0.0 mm
14:59 23.3 °C 10.3 °C 1012.0 hPa ENE 14.5 km/h 31.5 km/h 43.8% 0.0 mm
15:04 23.3 °C 10.6 °C 1012.0 hPa NE 16.1 km/h 32.2 km/h 44.9% 0.0 mm
15:09 23.2 °C 10.7 °C 1011.8 hPa ENE 15.3 km/h 30.6 km/h 45.3% 0.0 mm
15:14 23.3 °C 11.1 °C 1011.8 hPa NE 13.7 km/h 29 km/h 46% 0.0 mm
15:19 23.3 °C 11.3 °C 1011.8 hPa ENE 14.3 km/h 31.5 km/h 46.8% 0.0 mm
15:24 23.4 °C 11.4 °C 1011.7 hPa ENE 15.6 km/h 32.2 km/h 46.8% 0.0 mm
15:29 23.5 °C 11.2 °C 1011.7 hPa NE 14.8 km/h 25.9 km/h 46% 0.0 mm
15:34 23.2 °C 11.1 °C 1011.7 hPa ENE 13 km/h 31.5 km/h 46.6% 0.0 mm
15:39 23.2 °C 11.2 °C 1011.6 hPa Este 14 km/h 32.2 km/h 46.9% 0.0 mm
15:44 23.4 °C 11.5 °C 1011.6 hPa ENE 16.1 km/h 24.1 km/h 47% 0.0 mm
15:49 23.6 °C 11.9 °C 1011.6 hPa NE 14.8 km/h 24.1 km/h 48% 0.0 mm
15:54 23.7 °C 12.2 °C 1011.5 hPa NE 12.2 km/h 32.3 km/h 48.6% 0.0 mm
15:59 23.4 °C 12.1 °C 1011.5 hPa NE 13.6 km/h 33.8 km/h 48.8% 0.0 mm
16:04 23.3 °C 12.1 °C 1011.5 hPa Este 16.1 km/h 29 km/h 49.4% 0.0 mm
16:09 23.7 °C 12.3 °C 1011.3 hPa ENE 15.1 km/h 25.1 km/h 49% 0.0 mm
16:14 23.8 °C 12.4 °C 1011.3 hPa NE 13 km/h 29.6 km/h 48.9% 0.0 mm
16:19 23.8 °C 12.2 °C 1011.3 hPa Este 13.3 km/h 30.6 km/h 48.1% 0.0 mm
16:24 23.9 °C 12.5 °C 1011.1 hPa ENE 14 km/h 30.6 km/h 49% 0.0 mm
16:29 24.1 °C 12.5 °C 1011.1 hPa ENE 13.9 km/h 27.8 km/h 48.4% 0.0 mm
16:34 24.1 °C 12.4 °C 1011.2 hPa ENE 13.7 km/h 27.4 km/h 48.1% 0.0 mm
16:39 24.2 °C 12.6 °C 1011.2 hPa ENE 13.2 km/h 25.9 km/h 48.4% 0.0 mm
16:44 24 °C 12.5 °C 1011.2 hPa NE 12.2 km/h 29.8 km/h 48.8% 0.0 mm
16:49 23.8 °C 12.5 °C 1011.2 hPa NE 13.4 km/h 30.6 km/h 49% 0.0 mm
16:54 23.7 °C 12.6 °C 1011.0 hPa ENE 16.1 km/h 27.4 km/h 49.8% 0.0 mm
16:59 23.8 °C 12.7 °C 1011.0 hPa NE 15.6 km/h 33.3 km/h 50% 0.0 mm
17:04 23.7 °C 12.9 °C 1011.0 hPa NE 14.8 km/h 33.8 km/h 50.9% 0.0 mm
17:09 23.6 °C 12.9 °C 1011.0 hPa NE 16.5 km/h 33.5 km/h 51.3% 0.0 mm
17:14 23.4 °C 13 °C 1011.0 hPa NE 19.8 km/h 40.7 km/h 52% 0.0 mm
17:19 23.3 °C 13.2 °C 1011.0 hPa NE 19.3 km/h 40.2 km/h 52.9% 0.0 mm
17:24 23.3 °C 13.3 °C 1011.0 hPa ENE 18 km/h 35.2 km/h 53.3% 0.0 mm
17:29 23.4 °C 13.1 °C 1011.0 hPa NE 17.4 km/h 37 km/h 52.5% 0.0 mm
17:34 23.2 °C 13.1 °C 1011.0 hPa NE 16.1 km/h 37 km/h 53.1% 0.0 mm
17:39 23 °C 13.1 °C 1011.0 hPa NE 17 km/h 29 km/h 53.8% 0.0 mm
17:44 23.2 °C 13.3 °C 1011.0 hPa ENE 19 km/h 27.4 km/h 54% 0.0 mm
17:49 23.2 °C 13.4 °C 1011.0 hPa NE 17.6 km/h 28.6 km/h 54% 0.0 mm
17:54 23 °C 13.3 °C 1010.9 hPa NE 14.8 km/h 35.2 km/h 54.3% 0.0 mm
17:59 22.9 °C 13.5 °C 1010.9 hPa NE 16.6 km/h 35.4 km/h 55.5% 0.0 mm
18:04 22.8 °C 13.6 °C 1010.9 hPa ENE 19.8 km/h 30.6 km/h 56% 0.0 mm
18:09 22.8 °C 13.6 °C 1010.9 hPa NE 18.8 km/h 30.6 km/h 56% 0.0 mm
18:14 22.8 °C 13.7 °C 1010.9 hPa ENE 16.4 km/h 28.2 km/h 56.5% 0.0 mm
18:19 22.8 °C 13.8 °C 1010.9 hPa ENE 16.4 km/h 33.3 km/h 56.8% 0.0 mm
18:24 22.6 °C 13.8 °C 1010.7 hPa NE 16.4 km/h 33.8 km/h 57.9% 0.0 mm
18:29 22.4 °C 14 °C 1010.7 hPa NE 17.6 km/h 35.2 km/h 58.8% 0.0 mm
18:34 22.4 °C 14 °C 1010.7 hPa NE 20.1 km/h 35.4 km/h 59% 0.0 mm
18:39 22.6 °C 14 °C 1010.7 hPa NE 19 km/h 32.2 km/h 58.4% 0.0 mm
18:44 22.6 °C 14.2 °C 1010.7 hPa ENE 16.4 km/h 33.3 km/h 59% 0.0 mm
18:49 22.6 °C 14.1 °C 1010.7 hPa North 15.9 km/h 33.8 km/h 59% 0.0 mm
18:54 22.6 °C 14.4 °C 1010.6 hPa NE 14.8 km/h 27.8 km/h 59.9% 0.0 mm
18:59 22.5 °C 14.5 °C 1010.6 hPa NE 14.5 km/h 27.4 km/h 60.5% 0.0 mm
19:04 22.4 °C 14.5 °C 1010.6 hPa ENE 14 km/h 27.8 km/h 61% 0.0 mm
19:09 22.2 °C 14.5 °C 1010.6 hPa NE 14.7 km/h 30.6 km/h 61.6% 0.0 mm
19:14 22.3 °C 14.5 °C 1010.6 hPa NE 16.1 km/h 30.6 km/h 61.5% 0.0 mm
19:19 22.2 °C 14.6 °C 1010.6 hPa NE 16.1 km/h 27.8 km/h 62.4% 0.0 mm
19:24 22.1 °C 14.7 °C 1010.6 hPa NE 16.1 km/h 31.5 km/h 63% 0.0 mm
19:29 21.8 °C 14.6 °C 1010.6 hPa NE 16.2 km/h 32.2 km/h 63.4% 0.0 mm
19:34 21.7 °C 14.8 °C 1010.6 hPa NE 16.4 km/h 26.2 km/h 64.8% 0.0 mm
19:39 21.7 °C 14.8 °C 1010.6 hPa NE 16.2 km/h 25.9 km/h 65% 0.0 mm
19:44 21.7 °C 14.9 °C 1010.6 hPa NE 15.6 km/h 30.9 km/h 65% 0.0 mm
19:49 21.6 °C 14.8 °C 1010.6 hPa ENE 15.7 km/h 33.5 km/h 65.2% 0.0 mm
19:54 21.7 °C 14.9 °C 1010.5 hPa NE 16.1 km/h 33.8 km/h 65.6% 0.0 mm
19:59 21.4 °C 14.7 °C 1010.5 hPa ENE 15.9 km/h 30.6 km/h 65.6% 0.0 mm
20:04 21.2 °C 14.9 °C 1010.7 hPa NE 15.6 km/h 30.6 km/h 66.9% 0.0 mm
20:09 21.2 °C 14.8 °C 1010.7 hPa NE 15.1 km/h 25.9 km/h 67% 0.0 mm
20:14 21.2 °C 14.8 °C 1010.7 hPa NE 14 km/h 31.7 km/h 67.3% 0.0 mm
20:19 21 °C 15 °C 1010.8 hPa ENE 14.8 km/h 32.2 km/h 68.6% 0.0 mm
20:24 20.9 °C 15 °C 1010.8 hPa NE 16.4 km/h 27.4 km/h 69% 0.0 mm
20:29 20.9 °C 15 °C 1010.8 hPa NE 15.5 km/h 25.9 km/h 69% 0.0 mm
20:34 20.8 °C 15.1 °C 1010.8 hPa ENE 13.7 km/h 25.7 km/h 69.7% 0.0 mm
20:39 20.8 °C 15.1 °C 1010.7 hPa NE 13.7 km/h 24.1 km/h 70% 0.0 mm
20:44 20.7 °C 15.1 °C 1010.7 hPa NE 13.7 km/h 25.9 km/h 70.1% 0.0 mm
20:49 20.6 °C 15.2 °C 1010.9 hPa NE 13.5 km/h 25.7 km/h 71% 0.0 mm
20:54 20.6 °C 15.4 °C 1010.9 hPa NE 13 km/h 24.1 km/h 71.9% 0.0 mm
20:59 20.6 °C 15.3 °C 1010.9 hPa ENE 12.6 km/h 22.5 km/h 72% 0.0 mm
21:04 20.5 °C 15.3 °C 1011.0 hPa ENE 11.9 km/h 24.5 km/h 72% 0.0 mm
21:09 20.4 °C 15.2 °C 1011.0 hPa ENE 12.3 km/h 24.5 km/h 72.3% 0.0 mm
21:14 20.3 °C 15.3 °C 1011.0 hPa ENE 13 km/h 24.1 km/h 73% 0.0 mm
21:19 20.3 °C 15.3 °C 1011.2 hPa ENE 12.7 km/h 27.8 km/h 73% 0.0 mm
21:24 20.3 °C 15.3 °C 1011.2 hPa NE 11.9 km/h 27.4 km/h 73% 0.0 mm
21:29 20.3 °C 15.3 °C 1011.2 hPa NE 12 km/h 25.9 km/h 73% 0.0 mm
21:34 20.2 °C 15.3 °C 1011.2 hPa NE 12.2 km/h 25.7 km/h 73.5% 0.0 mm
21:39 20.3 °C 15.5 °C 1011.2 hPa NE 11.9 km/h 22.5 km/h 74% 0.0 mm
21:44 20.3 °C 15.5 °C 1011.2 hPa NE 11.1 km/h 22.2 km/h 74% 0.0 mm
21:49 20.3 °C 15.5 °C 1011.4 hPa NE 11.5 km/h 31.5 km/h 74% 0.0 mm
21:54 20.1 °C 15.4 °C 1011.4 hPa NE 12.2 km/h 32.2 km/h 74.4% 0.0 mm
21:59 20.1 °C 15.6 °C 1011.4 hPa NE 13.2 km/h 24.1 km/h 75% 0.0 mm
22:04 20.1 °C 15.6 °C 1011.5 hPa NE 14.8 km/h 24.1 km/h 75.1% 0.0 mm
22:09 19.9 °C 15.6 °C 1011.5 hPa NE 14.5 km/h 24.1 km/h 76% 0.0 mm
22:14 19.9 °C 15.6 °C 1011.5 hPa NE 13.7 km/h 22.5 km/h 76% 0.0 mm
22:19 19.9 °C 15.6 °C 1011.6 hPa NE 13.7 km/h 22.5 km/h 76.4% 0.0 mm
22:24 19.8 °C 15.7 °C 1011.6 hPa NE 13.7 km/h 26.2 km/h 77% 0.0 mm
22:29 19.8 °C 15.7 °C 1011.6 hPa NE 13.7 km/h 25.7 km/h 77% 0.0 mm
22:34 19.9 °C 15.7 °C 1011.8 hPa NE 13.7 km/h 23.3 km/h 76.6% 0.0 mm
22:39 19.9 °C 15.6 °C 1011.8 hPa NE 13.2 km/h 24.1 km/h 76% 0.0 mm
22:44 19.9 °C 15.6 °C 1011.8 hPa NE 12.2 km/h 24.1 km/h 76% 0.0 mm
22:49 19.9 °C 15.7 °C 1011.9 hPa NE 12.1 km/h 19.3 km/h 76.9% 0.0 mm
22:54 19.8 °C 15.7 °C 1011.9 hPa NE 11.9 km/h 20.1 km/h 77% 0.0 mm
22:59 19.8 °C 15.8 °C 1011.9 hPa NE 11.6 km/h 20.9 km/h 77.9% 0.0 mm
23:04 19.7 °C 15.8 °C 1011.9 hPa NE 11.1 km/h 20.9 km/h 78% 0.0 mm
23:09 19.7 °C 15.8 °C 1011.9 hPa NE 11.1 km/h 19.3 km/h 78% 0.0 mm
23:14 19.6 °C 15.7 °C 1011.9 hPa NNE 11.1 km/h 19.3 km/h 78.4% 0.0 mm
23:19 19.6 °C 15.8 °C 1012.2 hPa NE 10.6 km/h 19.3 km/h 79% 0.0 mm
23:24 19.5 °C 15.8 °C 1012.2 hPa NE 9.5 km/h 18 km/h 79% 0.0 mm
23:29 19.5 °C 15.8 °C 1012.2 hPa NNE 9.2 km/h 19.3 km/h 79.2% 0.0 mm
23:34 19.5 °C 16 °C 1012.2 hPa NNE 8.7 km/h 19.3 km/h 80% 0.0 mm
23:39 19.5 °C 16 °C 1012.1 hPa NE 9.1 km/h 17.7 km/h 80% 0.0 mm
23:44 19.6 °C 16 °C 1012.1 hPa NNE 10 km/h 14.8 km/h 80% 0.0 mm
23:49 19.6 °C 16 °C 1012.1 hPa NE 9.6 km/h 17.2 km/h 80% 0.0 mm
23:54 19.5 °C 16 °C 1012.0 hPa NE 8.7 km/h 17.7 km/h 80% 0.0 mm
23:59 19.5 °C 16 °C 1012.0 hPa NE 8.6 km/h 14.5 km/h 80% 0.0 mm
Murcia-Puente Tocinos, España
Compliments of Weather Underground - 3 mb

La estación de MeteoMurcia.com, publica sus datos en los siguientes proyectos:

Weather Underground PWS IMURCIAP2 Meteoclimatic www.awekas.at

W3Counter
Web Analytics